Time;durP1;ratioP1;P1;durP2;ratioP2;P2;SDS_P1;SDS_P2;PMS_P1;PMS_P2;Temp;Humidity;BMP_temperature;BMP_pressure;BME280_temperature;BME280_humidity;BME280_pressure;Samples;Min_cycle;Max_cycle;Signal;HPM_P1;HPM_P2
2024/02/18 00:01:50;;;;;;;;;;;;;;;-146.32;100.00;63746.28;4140118;28;19932;-84
2024/02/18 00:04:16;;;;;;;;;;;;;;;-146.32;100.00;63746.28;4144839;28;20383;-86
2024/02/18 00:06:40;;;;;;;;;;;;;;;-146.32;100.00;63746.28;4120440;28;19965;-84
2024/02/18 00:09:06;;;;;;;;;;;;;;;-146.32;100.00;63746.28;4144943;28;19972;-84
2024/02/18 00:11:33;;;;;;;;;;;;;;;-146.32;100.00;63746.28;4116775;28;19973;-83
2024/02/18 00:13:59;;;;;;;;;;;;;;;-146.32;100.00;63746.28;4135162;28;20415;-85
2024/02/18 00:16:20;;;;;;;;;;;;;;;-146.32;100.00;63746.28;4146782;28;19948;-85
2024/02/18 00:18:48;;;;;;;;;;;;;;;-146.32;100.00;63746.28;4132636;28;19933;-85
2024/02/18 00:21:09;;;;;;;;;;;;;;;-146.32;100.00;63746.28;4142262;28;19932;-85
2024/02/18 00:23:30;;;;;;;;;;;;;;;-146.32;100.00;63746.28;4145673;28;19948;-85
2024/02/18 00:25:50;;;;;;;;;;;;;;;-146.32;100.00;63746.28;4138746;28;19936;-85
2024/02/18 00:28:14;;;;;;;;;;;;;;;-146.32;100.00;63746.28;4146144;28;20555;-87
2024/02/18 00:30:35;;;;;;;;;;;;;;;-146.32;100.00;63746.28;4139399;28;19933;-84
2024/02/18 00:32:56;;;;;;;;;;;;;;;-146.32;100.00;63746.28;4139462;28;20331;-83
2024/02/18 00:35:16;;;;;;;;;;;;;;;-146.32;100.00;63746.28;4147301;28;20272;-83
2024/02/18 00:37:38;;;;;;;;;;;;;;;-146.32;100.00;63746.28;4148303;28;20380;-83
2024/02/18 00:39:59;;;;;;;;;;;;;;;-146.32;100.00;63746.28;4114058;28;19933;-84
2024/02/18 00:42:20;;;;;;;;;;;;;;;-146.32;100.00;63746.28;4146186;28;19972;-83
2024/02/18 00:44:42;;;;;;;;;;;;;;;-146.32;100.00;63746.28;4124874;28;20527;-83
2024/02/18 00:47:08;;;;;;;;;;;;;;;-146.32;100.00;63746.28;4120848;28;19961;-84
2024/02/18 00:49:28;;;;;;;;;;;;;;;-146.32;100.00;63746.28;4142671;28;19933;-88
2024/02/18 00:51:49;;;;;;;;;;;;;;;-146.32;100.00;63746.28;4137939;28;19932;-83
2024/02/18 00:54:16;;;;;;;;;;;;;;;-146.32;100.00;63746.28;4140036;28;19932;-84
2024/02/18 00:56:39;;;;;;;;;;;;;;;-146.32;100.00;63746.28;4141186;28;20013;-83
2024/02/18 00:59:06;;;;;;;;;;;;;;;-146.32;100.00;63746.28;4136915;28;19936;-85
2024/02/18 01:01:45;;;;;;;;;;;;;;;-146.32;100.00;63746.28;4125034;28;19936;-85
2024/02/18 01:04:10;;;;;;;;;;;;;;;-146.32;100.00;63746.28;4140257;28;20382;-84
2024/02/18 01:06:35;;;;;;;;;;;;;;;-146.32;100.00;63746.28;4125852;28;19968;-86
2024/02/18 01:08:56;;;;;;;;;;;;;;;-146.32;100.00;63746.28;4146998;28;20113;-86
2024/02/18 01:11:19;;;;;;;;;;;;;;;-146.32;100.00;63746.28;4118795;28;19933;-85
2024/02/18 01:13:40;;;;;;;;;;;;;;;-146.32;100.00;63746.28;4143084;28;19967;-85
2024/02/18 01:16:01;;;;;;;;;;;;;;;-146.32;100.00;63746.28;4133461;28;19941;-85
2024/02/18 01:18:25;;;;;;;;;;;;;;;-146.32;100.00;63746.28;4148956;28;20430;-84
2024/02/18 01:20:46;;;;;;;;;;;;;;;-146.32;100.00;63746.28;4148763;28;19936;-85
2024/02/18 01:23:07;;;;;;;;;;;;;;;-146.32;100.00;63746.28;4140658;28;20436;-85
2024/02/18 01:25:28;;;;;;;;;;;;;;;-146.32;100.00;63746.28;4136762;28;19932;-86
2024/02/18 01:27:50;;;;;;;;;;;;;;;-146.32;100.00;63746.28;4128072;28;19933;-86
2024/02/18 01:30:14;;;;;;;;;;;;;;;-146.32;100.00;63746.28;4125019;28;19933;-85
2024/02/18 01:32:36;;;;;;;;;;;;;;;-146.32;100.00;63746.28;4146285;28;19980;-85
2024/02/18 01:34:58;;;;;;;;;;;;;;;-146.32;100.00;63746.28;4138841;28;19957;-85
2024/02/18 01:37:19;;;;;;;;;;;;;;;-146.32;100.00;63746.28;4146530;28;20392;-87
2024/02/18 01:39:40;;;;;;;;;;;;;;;-146.32;100.00;63746.28;4142047;28;19932;-83
2024/02/18 01:42:03;;;;;;;;;;;;;;;-146.32;100.00;63746.28;4129661;28;19932;-84
2024/02/18 01:44:27;;;;;;;;;;;;;;;-146.32;100.00;63746.28;4124668;28;19959;-84
2024/02/18 01:46:56;;;;;;;;;;;;;;;-146.32;100.00;63746.28;4146808;28;19933;-85
2024/02/18 01:49:17;;;;;;;;;;;;;;;-146.32;100.00;63746.28;4146888;28;19968;-85
2024/02/18 01:51:39;;;;;;;;;;;;;;;-146.32;100.00;63746.28;4143205;28;20002;-84
2024/02/18 01:54:00;;;;;;;;;;;;;;;-146.32;100.00;63746.28;4136322;28;20451;-84
2024/02/18 01:56:20;;;;;;;;;;;;;;;-146.32;100.00;63746.28;4131431;28;19958;-84
2024/02/18 01:58:41;;;;;;;;;;;;;;;-146.32;100.00;63746.28;4145596;28;19931;-85
2024/02/18 02:01:03;;;;;;;;;;;;;;;-146.32;100.00;63746.28;4143996;28;19973;-84
2024/02/18 02:03:25;;;;;;;;;;;;;;;-146.32;100.00;63746.28;4130852;28;19937;-84
2024/02/18 02:05:50;;;;;;;;;;;;;;;-146.32;100.00;63746.28;4140756;28;20435;-86
2024/02/18 02:08:13;;;;;;;;;;;;;;;-146.32;100.00;63746.28;4131600;28;19986;-83
2024/02/18 02:10:33;;;;;;;;;;;;;;;-146.32;100.00;63746.28;4137027;28;19977;-83
2024/02/18 02:12:54;;;;;;;;;;;;;;;-146.32;100.00;63746.28;4144536;28;19992;-86
2024/02/18 02:15:15;;;;;;;;;;;;;;;-146.32;100.00;63746.28;4132265;28;20010;-86
2024/02/18 02:17:49;;;;;;;;;;;;;;;-146.32;100.00;63746.28;4144212;28;19984;-86
2024/02/18 02:20:13;;;;;;;;;;;;;;;-146.32;100.00;63746.28;4125277;28;20029;-86
2024/02/18 02:22:38;;;;;;;;;;;;;;;-146.32;100.00;63746.28;4118861;28;19978;-85
2024/02/18 02:25:00;;;;;;;;;;;;;;;-146.32;100.00;63746.28;4127483;28;19932;-85
2024/02/18 02:27:22;;;;;;;;;;;;;;;-146.32;100.00;63746.28;4133854;28;19933;-85
2024/02/18 02:29:44;;;;;;;;;;;;;;;-146.32;100.00;63746.28;4117897;28;19972;-86
2024/02/18 02:32:05;;;;;;;;;;;;;;;-146.32;100.00;63746.28;4130653;28;20483;-87
2024/02/18 02:34:26;;;;;;;;;;;;;;;-146.32;100.00;63746.28;4130252;28;19932;-85
2024/02/18 02:36:48;;;;;;;;;;;;;;;-146.32;100.00;63746.28;4112547;28;19976;-85
2024/02/18 02:39:11;;;;;;;;;;;;;;;-146.32;100.00;63746.28;4126233;28;19941;-86
2024/02/18 02:41:42;;;;;;;;;;;;;;;-146.32;100.00;63746.28;4116159;28;19933;-86
2024/02/18 02:44:03;;;;;;;;;;;;;;;-146.32;100.00;63746.28;4130353;28;19957;-85
2024/02/18 02:46:25;;;;;;;;;;;;;;;-146.32;100.00;63746.28;4128099;28;19937;-85
2024/02/18 02:48:48;;;;;;;;;;;;;;;-146.32;100.00;63746.28;4123738;28;20035;-85
2024/02/18 02:51:11;;;;;;;;;;;;;;;-146.32;100.00;63746.28;4126792;28;19981;-85
2024/02/18 02:53:33;;;;;;;;;;;;;;;-146.32;100.00;63746.28;4125539;28;20264;-85
2024/02/18 02:55:54;;;;;;;;;;;;;;;-146.32;100.00;63746.28;4133116;28;20456;-87
2024/02/18 02:58:18;;;;;;;;;;;;;;;-146.32;100.00;63746.28;4127644;28;20028;-85
2024/02/18 03:00:40;;;;;;;;;;;;;;;-146.32;100.00;63746.28;4122273;28;20329;-85
2024/02/18 03:03:03;;;;;;;;;;;;;;;-146.32;100.00;63746.28;4117227;28;19981;-85
2024/02/18 03:05:23;;;;;;;;;;;;;;;-146.32;100.00;63746.28;4126691;28;19932;-84
2024/02/18 03:07:43;;;;;;;;;;;;;;;-146.32;100.00;63746.28;4100355;28;19974;-85
2024/02/18 03:10:11;;;;;;;;;;;;;;;-146.32;100.00;63746.28;4126845;28;19936;-86
2024/02/18 03:12:33;;;;;;;;;;;;;;;-146.32;100.00;63746.28;4131343;28;19932;-85
2024/02/18 03:14:54;;;;;;;;;;;;;;;-146.32;100.00;63746.28;4122540;28;20013;-85
2024/02/18 03:17:15;;;;;;;;;;;;;;;-146.32;100.00;63746.28;4130318;28;20460;-85
2024/02/18 03:19:48;;;;;;;;;;;;;;;-146.32;100.00;63746.28;4132283;28;20030;-87
2024/02/18 03:22:12;;;;;;;;;;;;;;;-146.32;100.00;63746.28;4136519;28;20404;-87
2024/02/18 03:24:38;;;;;;;;;;;;;;;-146.32;100.00;63746.28;4121364;28;19986;-85
2024/02/18 03:27:03;;;;;;;;;;;;;;;-146.32;100.00;63746.28;4118151;28;20078;-85
2024/02/18 03:29:25;;;;;;;;;;;;;;;-146.32;100.00;63746.28;4133078;28;19932;-85
2024/02/18 03:31:52;;;;;;;;;;;;;;;-146.32;100.00;63746.28;4103696;28;20025;-86
2024/02/18 03:34:31;;;;;;;;;;;;;;;-146.32;100.00;63746.28;4141035;28;19931;-85
2024/02/18 03:36:56;;;;;;;;;;;;;;;-146.32;100.00;63746.28;4133933;28;20022;-87
2024/02/18 03:39:17;;;;;;;;;;;;;;;-146.32;100.00;63746.28;4134035;28;19982;-85
2024/02/18 03:41:40;;;;;;;;;;;;;;;-146.32;100.00;63746.28;4124167;28;19933;-85
2024/02/18 03:44:01;;;;;;;;;;;;;;;-146.32;100.00;63746.28;4136811;28;20521;-85
2024/02/18 03:46:21;;;;;;;;;;;;;;;-146.32;100.00;63746.28;4123365;28;19957;-84
2024/02/18 03:48:42;;;;;;;;;;;;;;;-146.32;100.00;63746.28;4129148;28;19933;-86
2024/02/18 03:51:03;;;;;;;;;;;;;;;-146.32;100.00;63746.28;4128873;28;19976;-85
2024/02/18 03:53:26;;;;;;;;;;;;;;;-146.32;100.00;63746.28;4137950;28;19973;-85
2024/02/18 03:55:47;;;;;;;;;;;;;;;-146.32;100.00;63746.28;4125701;28;20653;-84
2024/02/18 03:58:10;;;;;;;;;;;;;;;-146.32;100.00;63746.28;4126569;28;20423;-85
2024/02/18 04:00:30;;;;;;;;;;;;;;;-146.32;100.00;63746.28;4129733;28;19933;-85
2024/02/18 04:02:53;;;;;;;;;;;;;;;-146.32;100.00;63746.28;4130218;28;19990;-93
2024/02/18 04:05:16;;;;;;;;;;;;;;;-146.32;100.00;63746.28;4129839;28;19971;-94
2024/02/18 04:07:36;;;;;;;;;;;;;;;-146.32;100.00;63746.28;4156631;28;19956;-93
2024/02/18 04:09:59;;;;;;;;;;;;;;;-146.32;100.00;63746.28;4148912;28;19970;-92
2024/02/18 04:12:22;;;;;;;;;;;;;;;-146.32;100.00;63746.28;4146315;28;19921;-83
2024/02/18 04:14:49;;;;;;;;;;;;;;;-146.32;100.00;63746.28;4121064;28;19932;-85
2024/02/18 04:17:14;;;;;;;;;;;;;;;-146.32;100.00;63746.28;4150310;28;20004;-82
2024/02/18 04:26:01;;;;;;;;;;;;;;;-146.32;100.00;63746.28;4083941;29;19955;-85
2024/02/18 04:28:25;;;;;;;;;;;;;;;-146.32;100.00;63746.28;4143834;28;19932;-84
2024/02/18 04:30:51;;;;;;;;;;;;;;;-146.32;100.00;63746.28;4130550;28;19932;-84
2024/02/18 04:33:16;;;;;;;;;;;;;;;-146.32;100.00;63746.28;4141819;28;19972;-85
2024/02/18 04:35:37;;;;;;;;;;;;;;;-146.32;100.00;63746.28;4126896;28;20305;-87
2024/02/18 04:37:58;;;;;;;;;;;;;;;-146.32;100.00;63746.28;4140910;28;19933;-85
2024/02/18 04:40:22;;;;;;;;;;;;;;;-146.32;100.00;63746.28;4143704;28;19941;-86
2024/02/18 04:42:44;;;;;;;;;;;;;;;-146.32;100.00;63746.28;4139933;28;19969;-87
2024/02/18 04:45:12;;;;;;;;;;;;;;;-146.32;100.00;63746.28;4151631;28;19987;-86
2024/02/18 04:47:35;;;;;;;;;;;;;;;-146.32;100.00;63746.28;4146443;28;19984;-86
2024/02/18 04:49:55;;;;;;;;;;;;;;;-146.32;100.00;63746.28;4146721;28;19980;-86
2024/02/18 04:52:18;;;;;;;;;;;;;;;-146.32;100.00;63746.28;4140067;28;20077;-85
2024/02/18 04:54:41;;;;;;;;;;;;;;;-146.32;100.00;63746.28;4136539;28;20424;-84
2024/02/18 04:57:02;;;;;;;;;;;;;;;-146.32;100.00;63746.28;4146089;28;20272;-86
2024/02/18 04:59:25;;;;;;;;;;;;;;;-146.32;100.00;63746.28;4142741;28;19992;-85
2024/02/18 05:01:48;;;;;;;;;;;;;;;-146.32;100.00;63746.28;4142194;28;19972;-86
2024/02/18 05:04:12;;;;;;;;;;;;;;;-146.32;100.00;63746.28;4130027;28;19932;-85
2024/02/18 05:06:38;;;;;;;;;;;;;;;-146.32;100.00;63746.28;4143537;28;19933;-85
2024/02/18 05:08:58;;;;;;;;;;;;;;;-146.32;100.00;63746.28;4125063;28;19966;-85
2024/02/18 05:11:24;;;;;;;;;;;;;;;-146.32;100.00;63746.28;4143856;28;19933;-86
2024/02/18 05:13:45;;;;;;;;;;;;;;;-146.32;100.00;63746.28;4142802;28;19932;-87
2024/02/18 05:16:08;;;;;;;;;;;;;;;-146.32;100.00;63746.28;4127925;28;19932;-87
2024/02/18 05:18:29;;;;;;;;;;;;;;;-146.32;100.00;63746.28;4145619;28;19932;-87
2024/02/18 05:20:50;;;;;;;;;;;;;;;-146.32;100.00;63746.28;4150140;28;19932;-85
2024/02/18 05:23:11;;;;;;;;;;;;;;;-146.32;100.00;63746.28;4156674;28;20020;-87
2024/02/18 05:25:33;;;;;;;;;;;;;;;-146.32;100.00;63746.28;4124611;28;19933;-87
2024/02/18 05:27:56;;;;;;;;;;;;;;;-146.32;100.00;63746.28;4149936;28;20036;-87
2024/02/18 05:30:44;;;;;;;;;;;;;;;-146.32;100.00;63746.28;4133826;28;19932;-86
2024/02/18 05:33:10;;;;;;;;;;;;;;;-146.32;100.00;63746.28;4144184;28;19933;-86
2024/02/18 05:35:31;;;;;;;;;;;;;;;-146.32;100.00;63746.28;4135298;28;19981;-86
2024/02/18 05:37:52;;;;;;;;;;;;;;;-146.32;100.00;63746.28;4142265;28;19941;-85
2024/02/18 05:40:13;;;;;;;;;;;;;;;-146.32;100.00;63746.28;4144432;28;19932;-84
2024/02/18 05:42:33;;;;;;;;;;;;;;;-146.32;100.00;63746.28;4148636;28;19936;-84
2024/02/18 05:44:54;;;;;;;;;;;;;;;-146.32;100.00;63746.28;4146420;28;19963;-86
2024/02/18 05:47:15;;;;;;;;;;;;;;;-146.32;100.00;63746.28;4149810;28;20505;-85
2024/02/18 05:49:36;;;;;;;;;;;;;;;-146.32;100.00;63746.28;4145057;28;20017;-87
2024/02/18 05:51:57;;;;;;;;;;;;;;;-146.32;100.00;63746.28;4142214;28;19956;-86
2024/02/18 05:54:18;;;;;;;;;;;;;;;-146.32;100.00;63746.28;4117990;28;19936;-85
2024/02/18 05:56:39;;;;;;;;;;;;;;;-146.32;100.00;63746.28;4143425;28;20016;-85
2024/02/18 05:58:59;;;;;;;;;;;;;;;-146.32;100.00;63746.28;4141636;28;19972;-86
2024/02/18 06:01:22;;;;;;;;;;;;;;;-146.32;100.00;63746.28;4141630;28;19948;-85
2024/02/18 06:03:43;;;;;;;;;;;;;;;-146.32;100.00;63746.28;4138052;28;19932;-85
2024/02/18 06:06:09;;;;;;;;;;;;;;;-146.32;100.00;63746.28;4142365;28;19984;-85
2024/02/18 06:08:30;;;;;;;;;;;;;;;-146.32;100.00;63746.28;4144368;28;19943;-86
2024/02/18 06:10:51;;;;;;;;;;;;;;;-146.32;100.00;63746.28;4140308;28;20428;-85
2024/02/18 06:13:11;;;;;;;;;;;;;;;-146.32;100.00;63746.28;4144869;28;19933;-85
2024/02/18 06:15:33;;;;;;;;;;;;;;;-146.32;100.00;63746.28;4128703;28;20347;-87
2024/02/18 06:17:57;;;;;;;;;;;;;;;-146.32;100.00;63746.28;4125108;28;19932;-86
2024/02/18 06:20:18;;;;;;;;;;;;;;;-146.32;100.00;63746.28;4143121;28;20445;-85
2024/02/18 06:22:40;;;;;;;;;;;;;;;-146.32;100.00;63746.28;4139748;28;19952;-85
2024/02/18 06:25:02;;;;;;;;;;;;;;;-146.32;100.00;63746.28;4140035;28;20284;-85
2024/02/18 06:27:26;;;;;;;;;;;;;;;-146.32;100.00;63746.28;4146283;28;19932;-85
2024/02/18 06:29:49;;;;;;;;;;;;;;;-146.32;100.00;63746.28;4144338;28;19956;-85
2024/02/18 06:32:20;;;;;;;;;;;;;;;-146.32;100.00;63746.28;4141413;28;19987;-88
2024/02/18 06:34:40;;;;;;;;;;;;;;;-146.32;100.00;63746.28;4144266;28;20352;-85
2024/02/18 06:37:02;;;;;;;;;;;;;;;-146.32;100.00;63746.28;4140434;28;20001;-83
2024/02/18 06:39:25;;;;;;;;;;;;;;;-146.32;100.00;63746.28;4130824;28;19980;-82
2024/02/18 06:41:50;;;;;;;;;;;;;;;-146.32;100.00;63746.28;4141748;28;19936;-81
2024/02/18 06:44:11;;;;;;;;;;;;;;;-146.32;100.00;63746.28;4140651;28;20024;-82
2024/02/18 06:46:32;;;;;;;;;;;;;;;-146.32;100.00;63746.28;4140799;28;19972;-82
2024/02/18 06:48:53;;;;;;;;;;;;;;;-146.32;100.00;63746.28;4142258;28;19935;-83
2024/02/18 06:51:25;;;;;;;;;;;;;;;-146.32;100.00;63746.28;4141090;28;19932;-83
2024/02/18 06:53:45;;;;;;;;;;;;;;;-146.32;100.00;63746.28;4144342;28;19936;-84
2024/02/18 06:56:07;;;;;;;;;;;;;;;-146.32;100.00;63746.28;4149089;28;19932;-84
2024/02/18 06:58:28;;;;;;;;;;;;;;;-146.32;100.00;63746.28;4145012;28;19963;-84
2024/02/18 07:00:49;;;;;;;;;;;;;;;-146.32;100.00;63746.28;4141030;28;20414;-83
2024/02/18 07:03:10;;;;;;;;;;;;;;;-146.32;100.00;63746.28;4142693;28;19937;-84
2024/02/18 07:05:31;;;;;;;;;;;;;;;-146.32;100.00;63746.28;4141222;28;19932;-84
2024/02/18 07:07:51;;;;;;;;;;;;;;;-146.32;100.00;63746.28;4146716;28;20284;-84
2024/02/18 07:10:12;;;;;;;;;;;;;;;-146.32;100.00;63746.28;4143788;28;19968;-85
2024/02/18 07:12:34;;;;;;;;;;;;;;;-146.32;100.00;63746.28;4141966;28;19973;-83
2024/02/18 07:14:55;;;;;;;;;;;;;;;-146.32;100.00;63746.28;4146317;28;19983;-83
2024/02/18 07:17:19;;;;;;;;;;;;;;;-146.32;100.00;63746.28;4148057;28;20009;-86
2024/02/18 07:19:40;;;;;;;;;;;;;;;-146.32;100.00;63746.28;4129412;28;19976;-87
2024/02/18 07:22:02;;;;;;;;;;;;;;;-146.32;100.00;63746.28;4145139;28;19936;-83
2024/02/18 07:24:31;;;;;;;;;;;;;;;-146.32;100.00;63746.28;4142097;28;20380;-83
2024/02/18 07:26:53;;;;;;;;;;;;;;;-146.32;100.00;63746.28;4137209;28;20327;-82
2024/02/18 07:29:31;;;;;;;;;;;;;;;-146.32;100.00;63746.28;4142410;28;19988;-84
2024/02/18 07:31:54;;;;;;;;;;;;;;;-146.32;100.00;63746.28;4116791;28;19982;-82
2024/02/18 07:34:14;;;;;;;;;;;;;;;-146.32;100.00;63746.28;4149927;28;19995;-85
2024/02/18 07:43:33;;;;;;;;;;;;;;;-146.32;100.00;63746.28;4133809;28;19922;-83
2024/02/18 07:45:54;;;;;;;;;;;;;;;-146.32;100.00;63746.28;4142556;28;20382;-82
2024/02/18 07:48:18;;;;;;;;;;;;;;;-146.32;100.00;63746.28;4129760;28;19933;-84
2024/02/18 07:50:41;;;;;;;;;;;;;;;-146.32;100.00;63746.28;4141879;28;20021;-84
2024/02/18 07:53:02;;;;;;;;;;;;;;;-146.32;100.00;63746.28;4128856;28;19940;-82
2024/02/18 07:55:23;;;;;;;;;;;;;;;-146.32;100.00;63746.28;4142073;28;20032;-85
2024/02/18 07:57:45;;;;;;;;;;;;;;;-146.32;100.00;63746.28;4125243;28;19936;-83
2024/02/18 08:00:09;;;;;;;;;;;;;;;-146.32;100.00;63746.28;4133910;28;19945;-82
2024/02/18 08:02:31;;;;;;;;;;;;;;;-146.32;100.00;63746.28;4135875;28;19937;-86
2024/02/18 08:04:54;;;;;;;;;;;;;;;-146.32;100.00;63746.28;4133184;28;20017;-81
2024/02/18 08:07:14;;;;;;;;;;;;;;;-146.32;100.00;63746.28;4127089;28;19969;-83
2024/02/18 08:09:39;;;;;;;;;;;;;;;-146.32;100.00;63746.28;4129585;28;20021;-82
2024/02/18 08:12:00;;;;;;;;;;;;;;;-146.32;100.00;63746.28;4142620;28;19936;-84
2024/02/18 08:14:20;;;;;;;;;;;;;;;-146.32;100.00;63746.28;4141097;28;20520;-86
2024/02/18 08:16:41;;;;;;;;;;;;;;;-146.32;100.00;63746.28;4126819;28;19932;-83
2024/02/18 08:19:02;;;;;;;;;;;;;;;-146.32;100.00;63746.28;4131408;28;19941;-85
2024/02/18 08:21:24;;;;;;;;;;;;;;;-146.32;100.00;63746.28;4123595;28;19981;-83
2024/02/18 08:23:45;;;;;;;;;;;;;;;-146.32;100.00;63746.28;4118659;28;19932;-84
2024/02/18 08:26:05;;;;;;;;;;;;;;;-146.32;100.00;63746.28;4124178;28;19946;-82
2024/02/18 08:28:26;;;;;;;;;;;;;;;-146.32;100.00;63746.28;4126431;28;20384;-84
2024/02/18 08:30:47;;;;;;;;;;;;;;;-146.32;100.00;63746.28;4129658;28;20391;-83
2024/02/18 08:33:08;;;;;;;;;;;;;;;-146.32;100.00;63746.28;4111239;28;20009;-85
2024/02/18 08:35:29;;;;;;;;;;;;;;;-146.32;100.00;63746.28;4116212;28;20285;-83
2024/02/18 08:37:51;;;;;;;;;;;;;;;-146.32;100.00;63746.28;4123535;28;19961;-82
2024/02/18 08:40:12;;;;;;;;;;;;;;;-146.32;100.00;63746.28;4125440;28;19977;-84
2024/02/18 08:42:33;;;;;;;;;;;;;;;-146.32;100.00;63746.28;4111540;28;19986;-85
2024/02/18 08:44:55;;;;;;;;;;;;;;;-146.32;100.00;63746.28;4130551;28;19937;-83
2024/02/18 08:47:15;;;;;;;;;;;;;;;-146.32;100.00;63746.28;4128711;28;19947;-86
2024/02/18 08:49:36;;;;;;;;;;;;;;;-146.32;100.00;63746.28;4130132;28;19981;-83
2024/02/18 08:51:57;;;;;;;;;;;;;;;-146.32;100.00;63746.28;4134648;28;19953;-83
2024/02/18 08:54:25;;;;;;;;;;;;;;;-146.32;100.00;63746.28;4139544;28;19933;-84
2024/02/18 08:56:46;;;;;;;;;;;;;;;-146.32;100.00;63746.28;4142248;28;19941;-85
2024/02/18 08:59:06;;;;;;;;;;;;;;;-146.32;100.00;63746.28;4154001;28;19932;-81
2024/02/18 09:01:28;;;;;;;;;;;;;;;-146.32;100.00;63746.28;4140753;28;19925;-80
2024/02/18 09:03:50;;;;;;;;;;;;;;;-146.32;100.00;63746.28;4141655;28;19945;-80
2024/02/18 09:06:13;;;;;;;;;;;;;;;-146.32;100.00;63746.28;4124186;28;19940;-83
2024/02/18 09:08:34;;;;;;;;;;;;;;;-146.32;100.00;63746.28;4112039;28;20424;-85
2024/02/18 09:10:56;;;;;;;;;;;;;;;-146.32;100.00;63746.28;4111812;28;20353;-83
2024/02/18 09:13:17;;;;;;;;;;;;;;;-146.32;100.00;63746.28;4141206;28;20603;-84
2024/02/18 09:15:39;;;;;;;;;;;;;;;-146.32;100.00;63746.28;4111698;28;19978;-84
2024/02/18 09:17:59;;;;;;;;;;;;;;;-146.32;100.00;63746.28;4129126;28;20032;-84
2024/02/18 09:20:20;;;;;;;;;;;;;;;-146.32;100.00;63746.28;4141332;28;19988;-82
2024/02/18 09:22:41;;;;;;;;;;;;;;;-146.32;100.00;63746.28;4142139;28;19948;-84
2024/02/18 09:25:05;;;;;;;;;;;;;;;-146.32;100.00;63746.28;4133440;28;20017;-85
2024/02/18 09:27:30;;;;;;;;;;;;;;;-146.32;100.00;63746.28;4134911;28;20740;-83
2024/02/18 09:29:53;;;;;;;;;;;;;;;-146.32;100.00;63746.28;4138453;28;20371;-83
2024/02/18 09:32:18;;;;;;;;;;;;;;;-146.32;100.00;63746.28;4140358;28;19980;-84
2024/02/18 09:34:39;;;;;;;;;;;;;;;-146.32;100.00;63746.28;4141516;28;20452;-85
2024/02/18 09:37:00;;;;;;;;;;;;;;;-146.32;100.00;63746.28;4138638;28;20284;-84
2024/02/18 09:39:21;;;;;;;;;;;;;;;-146.32;100.00;63746.28;4139819;28;19979;-83
2024/02/18 09:41:41;;;;;;;;;;;;;;;-146.32;100.00;63746.28;4142717;28;20034;-83
2024/02/18 09:44:06;;;;;;;;;;;;;;;-146.32;100.00;63746.28;4141407;28;19988;-84
2024/02/18 09:46:27;;;;;;;;;;;;;;;-146.32;100.00;63746.28;4140581;28;19967;-86
2024/02/18 09:48:48;;;;;;;;;;;;;;;-146.32;100.00;63746.28;4141580;28;19935;-83
2024/02/18 09:51:08;;;;;;;;;;;;;;;-146.32;100.00;63746.28;4141064;28;20427;-89
2024/02/18 09:53:34;;;;;;;;;;;;;;;-146.32;100.00;63746.28;4126597;28;19936;-85
2024/02/18 09:55:55;;;;;;;;;;;;;;;-146.32;100.00;63746.28;4138655;28;19933;-82
2024/02/18 09:58:18;;;;;;;;;;;;;;;-146.32;100.00;63746.28;4140893;28;19992;-82
2024/02/18 10:00:40;;;;;;;;;;;;;;;-146.32;100.00;63746.28;4140938;28;19936;-82
2024/02/18 10:03:02;;;;;;;;;;;;;;;-146.32;100.00;63746.28;4125237;28;19940;-84
2024/02/18 10:05:28;;;;;;;;;;;;;;;-146.32;100.00;63746.28;4139658;28;20428;-81
2024/02/18 10:08:02;;;;;;;;;;;;;;;-146.32;100.00;63746.28;4139452;28;19936;-81
2024/02/18 10:10:31;;;;;;;;;;;;;;;-146.32;100.00;63746.28;4140015;28;19933;-80
2024/02/18 10:12:52;;;;;;;;;;;;;;;-146.32;100.00;63746.28;4142988;28;19972;-82
2024/02/18 10:15:16;;;;;;;;;;;;;;;-146.32;100.00;63746.28;4123610;28;19957;-82
2024/02/18 10:17:39;;;;;;;;;;;;;;;-146.32;100.00;63746.28;4139722;28;20381;-83
2024/02/18 10:20:00;;;;;;;;;;;;;;;-146.32;100.00;63746.28;4124638;28;19997;-82
2024/02/18 10:22:22;;;;;;;;;;;;;;;-146.32;100.00;63746.28;4129744;28;20021;-83
2024/02/18 10:24:43;;;;;;;;;;;;;;;-146.32;100.00;63746.28;4111587;28;19934;-82
2024/02/18 10:27:04;;;;;;;;;;;;;;;-146.32;100.00;63746.28;4125871;28;19933;-83
2024/02/18 10:29:25;;;;;;;;;;;;;;;-146.32;100.00;63746.28;4139481;28;19940;-83
2024/02/18 10:31:45;;;;;;;;;;;;;;;-146.32;100.00;63746.28;4140199;28;19953;-83
2024/02/18 10:34:07;;;;;;;;;;;;;;;-146.32;100.00;63746.28;4141282;28;19980;-82
2024/02/18 10:36:28;;;;;;;;;;;;;;;-146.32;100.00;63746.28;4139316;28;20468;-80
2024/02/18 10:38:51;;;;;;;;;;;;;;;-146.32;100.00;63746.28;4141004;28;20379;-82
2024/02/18 10:41:14;;;;;;;;;;;;;;;-146.32;100.00;63746.28;4141660;28;19936;-82
2024/02/18 10:43:38;;;;;;;;;;;;;;;-146.32;100.00;63746.28;4136948;28;23983;-82
2024/02/18 10:45:59;;;;;;;;;;;;;;;-146.32;100.00;63746.28;4141675;28;19972;-82
2024/02/18 10:48:19;;;;;;;;;;;;;;;-146.32;100.00;63746.28;4141811;28;19954;-82
2024/02/18 10:50:43;;;;;;;;;;;;;;;-146.32;100.00;63746.28;4139714;28;19976;-81
2024/02/18 10:53:06;;;;;;;;;;;;;;;-146.32;100.00;63746.28;4140120;28;19957;-83
2024/02/18 10:55:30;;;;;;;;;;;;;;;-146.32;100.00;63746.28;4140752;28;19979;-83
2024/02/18 10:57:52;;;;;;;;;;;;;;;-146.32;100.00;63746.28;4139696;28;19933;-82
2024/02/18 11:00:13;;;;;;;;;;;;;;;-146.32;100.00;63746.28;4124875;28;20016;-82
2024/02/18 11:02:36;;;;;;;;;;;;;;;-146.32;100.00;63746.28;4138055;28;20403;-82
2024/02/18 11:04:57;;;;;;;;;;;;;;;-146.32;100.00;63746.28;4140194;28;20468;-82
2024/02/18 11:07:19;;;;;;;;;;;;;;;-146.32;100.00;63746.28;4124981;28;19932;-82
2024/02/18 11:09:40;;;;;;;;;;;;;;;-146.32;100.00;63746.28;4124379;28;20083;-84
2024/02/18 11:12:02;;;;;;;;;;;;;;;-146.32;100.00;63746.28;4137379;28;19945;-82
2024/02/18 11:14:28;;;;;;;;;;;;;;;-146.32;100.00;63746.28;4139898;28;19937;-83
2024/02/18 11:16:49;;;;;;;;;;;;;;;-146.32;100.00;63746.28;4125559;28;20317;-82
2024/02/18 11:19:11;;;;;;;;;;;;;;;-146.32;100.00;63746.28;4140332;28;20320;-81
2024/02/18 11:21:36;;;;;;;;;;;;;;;-146.32;100.00;63746.28;4141049;28;19932;-81
2024/02/18 11:23:59;;;;;;;;;;;;;;;-146.32;100.00;63746.28;4125232;28;20378;-79
2024/02/18 11:26:22;;;;;;;;;;;;;;;-146.32;100.00;63746.28;4139220;28;19937;-81
2024/02/18 11:28:42;;;;;;;;;;;;;;;-146.32;100.00;63746.28;4139799;28;20012;-81
2024/02/18 11:31:05;;;;;;;;;;;;;;;-146.32;100.00;63746.28;4140848;28;19956;-82
2024/02/18 11:33:25;;;;;;;;;;;;;;;-146.32;100.00;63746.28;4140424;28;20021;-84
2024/02/18 11:35:46;;;;;;;;;;;;;;;-146.32;100.00;63746.28;4117039;28;19941;-83
2024/02/18 11:38:10;;;;;;;;;;;;;;;-146.32;100.00;63746.28;4138098;28;20288;-84
2024/02/18 11:40:33;;;;;;;;;;;;;;;-146.32;100.00;63746.28;4125981;28;19936;-83
2024/02/18 11:42:55;;;;;;;;;;;;;;;-146.32;100.00;63746.28;4112427;28;19933;-84
2024/02/18 11:45:17;;;;;;;;;;;;;;;-146.32;100.00;63746.28;4139606;28;19939;-83
2024/02/18 11:47:37;;;;;;;;;;;;;;;-146.32;100.00;63746.28;4137552;28;20422;-83
2024/02/18 11:49:58;;;;;;;;;;;;;;;-146.32;100.00;63746.28;4140074;28;19937;-85
2024/02/18 11:52:19;;;;;;;;;;;;;;;-146.32;100.00;63746.28;4143447;28;19948;-83
2024/02/18 11:54:40;;;;;;;;;;;;;;;-146.32;100.00;63746.28;4143618;28;19932;-84
2024/02/18 11:57:05;;;;;;;;;;;;;;;-146.32;100.00;63746.28;4139098;28;19933;-82
2024/02/18 11:59:26;;;;;;;;;;;;;;;-146.32;100.00;63746.28;4139219;28;19976;-82
2024/02/18 12:01:49;;;;;;;;;;;;;;;-146.32;100.00;63746.28;4142149;28;19936;-82
2024/02/18 12:04:09;;;;;;;;;;;;;;;-146.32;100.00;63746.28;4143169;28;19988;-82
2024/02/18 12:06:33;;;;;;;;;;;;;;;-146.32;100.00;63746.28;4141611;28;19956;-82
2024/02/18 12:08:54;;;;;;;;;;;;;;;-146.32;100.00;63746.28;4137531;28;19932;-81